Time;durP1;ratioP1;P1;durP2;ratioP2;P2;SDS_P1;SDS_P2;PMS_P1;PMS_P2;Temp;Humidity;BMP_temperature;BMP_pressure;BME280_temperature;BME280_humidity;BME280_pressure;Samples;Min_cycle;Max_cycle;Signal;HPM_P1;HPM_P2
2022/01/01 00:01:55;;;;;;;51.68;24.40;;;;;;;2.63;100.00;93629.72;1680995;83;21221;-63
2022/01/01 00:04:23;;;;;;;44.27;23.30;;;;;;;2.63;100.00;92953.48;1684925;84;21142;-64
2022/01/01 00:06:50;;;;;;;43.42;23.60;;;;;;;2.63;100.00;92108.36;1684133;84;21078;-63
2022/01/01 00:09:18;;;;;;;43.55;23.75;;;;;;;2.63;100.00;91602.17;1680531;84;21122;-63
2022/01/01 00:11:44;;;;;;;48.50;25.85;;;;;;;2.64;100.00;89069.21;1679365;83;21491;-63
2022/01/01 00:14:11;;;;;;;43.02;23.70;;;;;;;2.68;100.00;84350.38;1610956;87;21161;-63
2022/01/01 00:16:39;;;;;;;44.88;23.92;;;;;;;2.70;100.00;81825.35;1637916;87;20965;-63
2022/01/01 00:19:06;;;;;;;43.60;23.15;;;;;;;2.72;100.00;81321.95;1667480;85;21535;-63
2022/01/01 00:21:32;;;;;;;43.10;21.77;;;;;;;2.73;100.00;80817.91;1650652;85;21082;-63
2022/01/01 00:23:59;;;;;;;44.45;23.67;;;;;;;2.76;100.00;79306.13;1637701;86;21599;-64
2022/01/01 00:26:25;;;;;;;45.88;23.83;;;;;;;2.78;100.00;78803.73;1624170;87;21026;-63
2022/01/01 00:28:52;;;;;;;44.55;23.30;;;;;;;2.80;100.00;78132.97;1664969;85;21985;-65
2022/01/01 00:31:19;;;;;;;44.73;24.25;;;;;;;2.80;100.00;77627.91;1637953;85;21094;-63
2022/01/01 00:33:45;;;;;;;42.70;22.67;;;;;;;2.77;100.00;80149.73;1664688;84;21118;-63
2022/01/01 00:36:13;;;;;;;40.48;22.48;;;;;;;2.75;100.00;81494.06;1638772;87;21134;-63
2022/01/01 00:38:41;;;;;;;41.73;21.87;;;;;;;2.71;100.00;82163.86;1651685;84;21433;-62
2022/01/01 00:41:07;;;;;;;37.90;19.40;;;;;;;2.75;100.00;77957.72;1638101;87;21106;-63
2022/01/01 00:43:35;;;;;;;37.78;21.05;;;;;;;2.84;100.00;72249.66;1656778;84;21021;-63
2022/01/01 00:46:01;;;;;;;40.25;21.17;;;;;;;2.86;100.00;71243.80;1638449;87;21138;-63
2022/01/01 00:48:28;;;;;;;38.70;21.55;;;;;;;2.89;100.00;70574.82;1663041;85;20983;-62
2022/01/01 00:50:57;;;;;;;39.00;21.65;;;;;;;2.91;100.00;69234.02;1625838;85;21111;-64
2022/01/01 00:53:23;;;;;;;36.70;20.52;;;;;;;2.94;100.00;68229.42;1655410;85;21161;-64
2022/01/01 00:55:52;;;;;;;37.05;20.10;;;;;;;2.93;100.00;68900.55;1637901;87;21098;-64
2022/01/01 00:58:18;;;;;;;40.75;21.20;;;;;;;2.94;100.00;69069.11;1626407;86;21083;-63
2022/01/01 01:00:45;;;;;;;36.13;19.75;;;;;;;2.96;100.00;67560.83;1658250;85;21177;-63
2022/01/01 01:03:13;;;;;;;38.83;21.00;;;;;;;2.99;100.00;65046.86;1638418;86;21040;-63
2022/01/01 01:05:41;;;;;;;37.00;19.48;;;;;;;3.02;100.00;63540.05;1645383;85;21667;-62
2022/01/01 01:08:10;;;;;;;35.78;19.48;;;;;;;3.04;100.00;62033.22;1638449;87;21346;-63
2022/01/01 01:10:38;;;;;;;33.65;19.00;;;;;;;3.10;100.00;61023.91;1644972;85;21010;-63
2022/01/01 01:13:05;;;;;;;35.85;18.55;;;;;;;3.18;100.00;58638.45;1638409;87;21439;-63
2022/01/01 01:15:34;;;;;;;32.28;18.50;;;;;;;3.22;100.00;57527.79;1658712;86;21112;-63
2022/01/01 01:18:04;;;;;;;35.08;18.60;;;;;;;3.24;100.00;57877.89;1644939;86;21139;-63
2022/01/01 01:20:31;;;;;;;34.78;18.90;;;;;;;3.27;100.00;56695.64;1652991;85;21063;-58
2022/01/01 01:22:58;;;;;;;36.00;18.87;;;;;;;3.32;100.00;54691.41;1639074;87;21098;-59
2022/01/01 01:25:29;;;;;;;36.85;18.67;;;;;;;3.37;100.00;52187.23;1663950;84;21038;-58
2022/01/01 01:27:53;;;;;;;32.73;18.02;;;;;;;3.42;100.00;50519.32;1671984;84;21025;-57
2022/01/01 01:30:22;;;;;;;30.92;17.57;;;;;;;3.47;100.00;49520.47;1669259;84;21780;-58
2022/01/01 01:32:48;;;;;;;33.70;17.05;;;;;;;3.50;100.00;49189.31;1668303;84;20988;-58
2022/01/01 01:35:15;;;;;;;28.20;16.32;;;;;;;3.56;100.00;47690.25;1668390;85;21412;-63
2022/01/01 01:37:42;;;;;;;32.42;18.17;;;;;;;3.64;100.00;45191.30;1670484;84;20912;-62
2022/01/01 01:40:10;;;;;;;34.90;18.17;;;;;;;3.69;100.00;43692.91;1666591;85;22076;-62
2022/01/01 01:42:37;;;;;;;31.75;17.45;;;;;;;3.72;100.00;43695.71;1666270;85;21475;-63
2022/01/01 01:45:11;;;;;;;30.10;15.93;;;;;;;3.76;100.00;44198.90;1661058;85;21225;-63
2022/01/01 01:47:37;;;;;;;27.93;15.40;;;;;;;3.78;100.00;45369.39;1661066;85;21372;-63
2022/01/01 01:50:06;;;;;;;30.52;16.30;;;;;;;3.79;100.00;45871.30;1660982;86;21112;-63
2022/01/01 01:52:36;;;;;;;30.62;16.52;;;;;;;3.82;100.00;45539.72;1664885;85;21371;-63
2022/01/01 01:55:05;;;;;;;30.57;16.73;;;;;;;3.83;100.00;45039.48;1593018;86;22268;-63
2022/01/01 01:57:32;;;;;;;25.70;14.38;;;;;;;3.85;100.00;45041.11;1661090;85;20913;-63
2022/01/01 01:59:58;;;;;;;28.45;15.32;;;;;;;3.89;100.00;43708.45;1617224;87;21099;-63
2022/01/01 02:02:25;;;;;;;26.70;15.03;;;;;;;3.94;100.00;43044.60;1645841;87;21068;-63
2022/01/01 02:04:52;;;;;;;29.12;15.05;;;;;;;3.95;100.00;43379.29;1650533;85;21510;-63
2022/01/01 02:07:18;;;;;;;27.58;15.23;;;;;;;3.98;100.00;43214.31;1642269;86;21108;-63
2022/01/01 02:09:45;;;;;;;28.85;15.85;;;;;;;3.98;100.00;44049.61;1651425;86;21101;-64
2022/01/01 02:12:12;;;;;;;30.70;15.95;;;;;;;3.98;100.00;45552.96;1639645;87;21196;-63
2022/01/01 02:17:31;;;;;;;29.55;15.28;;;;;;;3.94;100.00;48056.13;1674027;85;21026;-63
2022/01/01 02:20:02;;;;;;;28.35;15.43;;;;;;;3.92;100.00;49894.36;1669367;85;21158;-65
2022/01/01 02:22:40;;;;;;;27.22;15.43;;;;;;;3.90;100.00;51900.40;1669941;85;21029;-63
2022/01/01 02:25:07;;;;;;;30.23;16.25;;;;;;;3.89;100.00;53070.75;1673376;85;21313;-64
2022/01/01 02:27:36;;;;;;;27.55;15.45;;;;;;;3.90;100.00;52736.86;1674004;85;21480;-63
2022/01/01 02:30:06;;;;;;;30.12;15.28;;;;;;;3.94;100.00;51234.21;1676011;84;21135;-63
2022/01/01 02:32:33;;;;;;;27.85;15.48;;;;;;;3.93;100.00;51233.75;1665802;85;20941;-63
2022/01/01 02:35:00;;;;;;;27.22;14.93;;;;;;;3.94;100.00;52071.52;1673581;85;21105;-63
2022/01/01 02:37:26;;;;;;;26.90;14.68;;;;;;;3.94;100.00;52741.14;1673915;85;21001;-63
2022/01/01 02:39:53;;;;;;;24.95;14.83;;;;;;;4.00;100.00;49734.27;1665878;85;21562;-63
2022/01/01 02:42:21;;;;;;;26.48;15.28;;;;;;;4.07;100.00;48234.23;1673856;85;21052;-63
2022/01/01 02:44:50;;;;;;;25.92;14.30;;;;;;;4.11;100.00;47736.04;1676594;84;21156;-63
2022/01/01 02:47:17;;;;;;;27.35;14.58;;;;;;;4.13;100.00;48573.99;1673994;85;21065;-63
2022/01/01 02:49:43;;;;;;;25.85;13.75;;;;;;;4.14;100.00;49913.27;1670137;85;21162;-63
2022/01/01 02:52:10;;;;;;;27.27;13.53;;;;;;;4.15;100.00;50081.96;1669729;85;21043;-63
2022/01/01 02:54:37;;;;;;;22.82;13.75;;;;;;;4.25;100.00;47915.39;1670003;85;21025;-63
2022/01/01 02:57:04;;;;;;;29.02;14.70;;;;;;;4.25;100.00;47915.39;1671562;85;21783;-62
2022/01/01 02:59:31;;;;;;;21.23;12.28;;;;;;;4.30;100.00;46080.14;1672546;84;21474;-62
2022/01/01 03:01:58;;;;;;;22.45;12.15;;;;;;;4.41;100.00;42244.72;1671353;84;21095;-62
2022/01/01 03:04:25;;;;;;;20.00;11.38;;;;;;;4.51;100.00;39079.91;1669415;84;21099;-63
2022/01/01 03:06:56;;;;;;;23.65;11.60;;;;;;;4.59;100.00;36916.42;1673597;85;21592;-62
2022/01/01 03:09:33;;;;;;;20.17;11.53;;;;;;;4.71;100.00;33255.74;1670282;85;21540;-62
2022/01/01 03:11:54;;;;;;;19.10;11.33;;;;;;;4.80;100.00;33260.71;1668420;85;21043;-63
2022/01/01 03:14:21;;;;;;;18.70;10.95;;;;;;;4.93;100.00;32768.36;1654226;85;21058;-63
2022/01/01 03:16:49;;;;;;;19.90;11.65;;;;;;;4.93;100.00;32768.36;1645100;86;21074;-63
2022/01/01 03:19:16;;;;;;;21.80;12.20;;;;;;;5.00;100.00;33106.40;1642629;86;21083;-63
2022/01/01 03:21:42;;;;;;;18.50;11.28;;;;;;;5.05;100.00;33442.70;1647762;86;21478;-63
2022/01/01 03:24:10;;;;;;;22.32;11.25;;;;;;;5.09;100.00;34112.34;1645543;86;21078;-63
2022/01/01 03:26:36;;;;;;;19.50;10.95;;;;;;;5.10;100.00;36114.92;1638512;86;21025;-63
2022/01/01 03:29:03;;;;;;;18.55;10.53;;;;;;;5.14;100.00;36785.65;1645399;85;21493;-63
2022/01/01 03:31:30;;;;;;;21.12;11.55;;;;;;;5.17;100.00;37622.25;1645903;86;21113;-63
2022/01/01 03:33:58;;;;;;;19.55;11.03;;;;;;;5.19;100.00;39795.03;1651553;86;21580;-63
2022/01/01 03:36:26;;;;;;;22.45;12.30;;;;;;;5.21;100.00;40966.89;1646311;86;21110;-64
2022/01/01 03:38:53;;;;;;;18.30;10.55;;;;;;;5.13;100.00;47989.12;1650009;86;21074;-63
2022/01/01 03:41:20;;;;;;;19.40;10.55;;;;;;;5.13;100.00;47989.12;1652824;86;21047;-63
2022/01/01 03:43:47;;;;;;;19.82;10.88;;;;;;;5.10;100.00;53015.14;1649103;86;21019;-63
2022/01/01 03:46:14;;;;;;;18.95;10.53;;;;;;;5.09;100.00;55027.22;1644002;85;21126;-62
2022/01/01 03:48:41;;;;;;;18.05;10.78;;;;;;;5.06;100.00;58708.61;1644870;86;21082;-64
2022/01/01 03:51:07;;;;;;;18.57;10.85;;;;;;;5.05;100.00;60627.13;1650298;86;21000;-62
2022/01/01 03:53:36;;;;;;;17.65;10.20;;;;;;;5.06;100.00;60555.43;1645863;85;21103;-63
2022/01/01 03:56:03;;;;;;;18.95;9.93;;;;;;;5.04;100.00;61520.54;1646558;86;21107;-63
2022/01/01 03:58:30;;;;;;;20.80;10.40;;;;;;;4.96;100.00;67960.22;1646881;86;21522;-63
2022/01/01 04:00:57;;;;;;;17.57;9.93;;;;;;;4.96;100.00;67960.22;1649256;85;21678;-62
2022/01/01 04:03:24;;;;;;;18.65;10.43;;;;;;;4.93;100.00;72170.14;1639080;86;21119;-63
2022/01/01 04:05:50;;;;;;;18.37;10.28;;;;;;;4.86;100.00;78745.30;1643391;86;21104;-63
2022/01/01 04:08:18;;;;;;;18.45;9.85;;;;;;;4.79;100.00;86007.34;1640883;86;21108;-64
2022/01/01 04:10:45;;;;;;;17.37;9.55;;;;;;;4.79;100.00;86007.34;1640073;86;22110;-63
2022/01/01 04:13:12;;;;;;;16.35;9.73;;;;;;;4.79;100.00;85838.05;1653375;86;21130;-62
2022/01/01 04:15:41;;;;;;;19.35;10.20;;;;;;;4.79;100.00;83638.11;1657494;86;20955;-63
2022/01/01 04:18:12;;;;;;;16.55;9.53;;;;;;;4.83;100.00;80430.98;1647532;86;21126;-59
2022/01/01 04:20:38;;;;;;;17.07;9.43;;;;;;;4.87;100.00;79253.58;1650182;86;21085;-59
2022/01/01 04:23:09;;;;;;;16.57;9.23;;;;;;;4.92;100.00;77232.55;1652396;86;21512;-58
2022/01/01 04:25:36;;;;;;;16.52;9.70;;;;;;;4.97;100.00;78083.98;1658418;86;21031;-59
2022/01/01 04:28:04;;;;;;;16.65;9.55;;;;;;;5.03;100.00;78260.52;1649922;86;21546;-59
2022/01/01 04:30:31;;;;;;;16.25;9.00;;;;;;;5.14;100.00;80980.80;1652420;84;21040;-59
2022/01/01 04:32:58;;;;;;;16.32;9.25;;;;;;;5.14;100.00;80980.80;1659321;85;21070;-63
2022/01/01 04:35:25;;;;;;;16.25;9.18;;;;;;;5.21;100.00;80481.92;1651332;86;22003;-63
2022/01/01 04:37:51;;;;;;;16.93;9.13;;;;;;;5.32;100.00;87269.81;1654511;86;21179;-64
2022/01/01 04:40:19;;;;;;;16.67;9.43;;;;;;;5.32;100.00;87269.81;1652628;85;21475;-64
2022/01/01 04:42:45;;;;;;;16.52;9.70;;;;;;;5.38;100.00;95255.92;1652063;86;21108;-63
2022/01/01 04:45:12;;;;;;;15.90;9.30;;;;;;;5.36;100.00;106994.30;1648675;85;21055;-63
2022/01/01 04:47:38;;;;;;;19.10;10.05;;;;;;;5.36;100.00;106994.30;1649483;86;21796;-63
2022/01/01 04:50:07;;;;;;;17.67;9.98;;;;;;;5.33;100.00;114156.33;1653902;85;21119;-63
2022/01/01 04:52:35;;;;;;;17.82;9.98;;;;;;;5.32;100.00;121335.59;1653327;86;21569;-64
2022/01/01 04:55:01;;;;;;;18.12;9.90;;;;;;;5.27;100.00;130578.87;1651700;86;21177;-64
2022/01/01 04:57:30;;;;;;;17.07;9.80;;;;;;;5.22;100.00;137438.44;1653095;86;21014;-59
2022/01/01 05:00:02;;;;;;;19.23;10.70;;;;;;;5.21;100.00;138639.61;1656326;86;22168;-59
2022/01/01 05:02:26;;;;;;;15.85;9.15;;;;;;;5.21;100.00;145740.41;1658400;85;21082;-65
2022/01/01 05:04:53;;;;;;;19.10;9.75;;;;;;;5.21;100.00;145740.41;1658603;85;21133;-65
2022/01/01 05:07:21;;;;;;;17.48;9.95;;;;;;;5.11;100.00;148945.37;1651670;86;21033;-64
2022/01/01 05:09:50;;;;;;;17.50;10.15;;;;;;;5.07;100.00;148935.00;1652414;85;21447;-59
2022/01/01 05:12:16;;;;;;;17.85;10.18;;;;;;;5.00;100.00;148919.50;1649407;86;21138;-59
2022/01/01 05:14:45;;;;;;;16.75;10.18;;;;;;;5.00;100.00;148919.50;1647477;86;21572;-59
2022/01/01 05:17:14;;;;;;;18.15;10.50;;;;;;;5.00;100.00;148919.50;1646932;85;21092;-63
2022/01/01 05:19:41;;;;;;;17.12;9.88;;;;;;;4.99;100.00;148916.92;1647176;85;20999;-64
2022/01/01 05:22:07;;;;;;;17.80;9.70;;;;;;;5.02;100.00;148923.41;1645175;87;21083;-64
2022/01/01 05:24:34;;;;;;;15.93;9.35;;;;;;;5.05;100.00;148929.84;1644730;87;21222;-64
2022/01/01 05:27:01;;;;;;;19.15;9.75;;;;;;;5.12;100.00;148949.22;1628910;87;21474;-65
2022/01/01 05:29:27;;;;;;;14.03;8.65;;;;;;;5.23;100.00;142304.88;1620902;87;21608;-65
2022/01/01 05:31:54;;;;;;;14.43;8.60;;;;;;;5.33;100.00;138151.33;1640799;87;21148;-63
2022/01/01 05:34:21;;;;;;;15.60;9.33;;;;;;;5.41;100.00;138514.52;1644828;86;21063;-64
2022/01/01 05:36:48;;;;;;;15.63;8.48;;;;;;;5.51;100.00;135270.03;1646394;86;21091;-63
2022/01/01 05:39:14;;;;;;;17.98;9.25;;;;;;;5.58;100.00;137692.78;1648504;85;21496;-63
2022/01/01 05:41:41;;;;;;;14.43;9.08;;;;;;;5.62;100.00;144135.19;1643735;85;21134;-58
2022/01/01 05:44:08;;;;;;;15.32;8.63;;;;;;;5.67;100.00;146769.14;1646706;85;21099;-58
2022/01/01 05:46:35;;;;;;;14.35;8.38;;;;;;;5.72;100.00;148701.39;1645037;86;21435;-58
2022/01/01 05:49:02;;;;;;;16.57;8.80;;;;;;;5.79;100.00;149114.69;1614081;86;21425;-65
2022/01/01 05:51:28;;;;;;;15.80;9.00;;;;;;;5.83;100.00;149125.02;1649053;85;21049;-65
2022/01/01 05:53:55;;;;;;;15.63;8.30;;;;;;;5.85;100.00;149131.50;1642757;85;21114;-64
2022/01/01 05:56:22;;;;;;;17.92;8.98;;;;;;;5.86;100.00;149132.81;1643087;86;21070;-63
2022/01/01 05:58:48;;;;;;;14.80;8.50;;;;;;;5.84;100.00;149127.61;1644961;86;21037;-63
2022/01/01 06:01:15;;;;;;;13.58;8.45;;;;;;;5.84;100.00;149127.61;1644739;86;21962;-64
2022/01/01 06:03:42;;;;;;;15.63;8.75;;;;;;;5.86;100.00;149132.81;1641086;86;21005;-63
2022/01/01 06:06:09;;;;;;;13.43;8.05;;;;;;;5.88;100.00;149138.00;1644443;86;21100;-65
2022/01/01 06:08:35;;;;;;;14.95;8.60;;;;;;;5.89;100.00;149140.58;1646813;85;20956;-64
2022/01/01 06:11:04;;;;;;;14.28;8.83;;;;;;;5.91;100.00;149145.75;1649501;86;21507;-58
2022/01/01 06:13:30;;;;;;;15.50;8.73;;;;;;;5.89;100.00;149140.58;1648408;85;21136;-58
2022/01/01 06:15:57;;;;;;;13.68;8.45;;;;;;;5.89;100.00;149140.58;1665691;84;21108;-58
2022/01/01 06:18:24;;;;;;;14.47;8.50;;;;;;;5.90;100.00;149141.84;1666935;85;21029;-58
2022/01/01 06:20:51;;;;;;;15.25;8.30;;;;;;;5.90;100.00;149141.84;1669747;84;21104;-60
2022/01/01 06:23:18;;;;;;;13.15;8.25;;;;;;;5.87;100.00;149135.41;1665210;84;21608;-57
2022/01/01 06:25:44;;;;;;;13.83;7.78;;;;;;;5.80;100.00;149117.28;1670337;85;21874;-59
2022/01/01 06:28:11;;;;;;;13.10;8.25;;;;;;;5.73;100.00;149101.77;1661506;85;21080;-58
2022/01/01 06:30:38;;;;;;;15.13;8.08;;;;;;;5.66;100.00;149083.69;1664738;84;21093;-57
2022/01/01 06:33:15;;;;;;;13.50;7.50;;;;;;;5.63;100.00;149075.89;1666947;84;21188;-58
2022/01/01 06:35:42;;;;;;;12.28;7.60;;;;;;;5.60;100.00;149068.13;1672805;85;20971;-58
2022/01/01 06:38:09;;;;;;;12.98;7.28;;;;;;;5.59;100.00;149065.55;1670261;84;21145;-59
2022/01/01 06:40:39;;;;;;;13.78;7.83;;;;;;;5.64;100.00;149077.20;1659789;85;21041;-59
2022/01/01 06:43:07;;;;;;;13.08;8.13;;;;;;;5.69;100.00;149090.12;1635464;86;21100;-58
2022/01/01 06:45:34;;;;;;;15.15;7.40;;;;;;;5.77;100.00;149109.52;1643725;86;21033;-65
2022/01/01 06:48:01;;;;;;;12.65;7.40;;;;;;;5.86;100.00;149132.81;1659746;85;21121;-65
2022/01/01 06:50:28;;;;;;;12.05;7.17;;;;;;;5.92;100.00;149148.33;1660532;85;21041;-64
2022/01/01 06:52:55;;;;;;;13.65;7.08;;;;;;;6.05;100.00;149179.39;1665203;84;21066;-64
2022/01/01 06:55:22;;;;;;;10.68;7.12;;;;;;;6.05;100.00;149179.39;1668810;84;21100;-64
2022/01/01 06:57:49;;;;;;;11.10;6.58;;;;;;;6.17;100.00;149210.44;1664042;85;21057;-59
2022/01/01 07:00:16;;;;;;;10.10;6.37;;;;;;;6.26;100.00;149233.70;1663958;86;21016;-58
2022/01/01 07:02:45;;;;;;;10.85;6.37;;;;;;;6.35;100.00;149254.44;1661657;85;21399;-58
2022/01/01 07:05:12;;;;;;;10.78;6.65;;;;;;;6.42;100.00;149272.53;1664309;85;21136;-60
2022/01/01 07:07:40;;;;;;;11.20;5.90;;;;;;;6.49;100.00;149289.36;1669499;84;20971;-59
2022/01/01 07:10:11;;;;;;;11.45;6.85;;;;;;;6.54;100.00;149303.59;1663711;85;21057;-59
2022/01/01 07:12:38;;;;;;;9.95;6.17;;;;;;;6.62;100.00;149321.69;1667858;85;21037;-59
2022/01/01 07:15:06;;;;;;;12.30;6.50;;;;;;;6.69;100.00;149341.11;1658784;85;21162;-59
2022/01/01 07:17:34;;;;;;;11.63;6.45;;;;;;;6.79;100.00;149364.38;1663955;86;21092;-59
2022/01/01 07:20:00;;;;;;;13.18;6.22;;;;;;;6.84;100.00;149378.63;1640261;87;21083;-58
2022/01/01 07:22:29;;;;;;;9.50;5.78;;;;;;;6.92;100.00;149396.73;1669584;84;21489;-58
2022/01/01 07:24:56;;;;;;;10.80;6.58;;;;;;;6.97;100.00;149410.97;1674118;84;21104;-64
2022/01/01 07:27:23;;;;;;;11.30;6.72;;;;;;;7.00;100.00;149418.73;1679134;84;21541;-65
2022/01/01 07:29:51;;;;;;;10.30;6.03;;;;;;;7.06;100.00;149432.98;1665944;84;20997;-65
2022/01/01 07:32:17;;;;;;;11.33;6.10;;;;;;;7.12;100.00;149448.50;1662391;84;21294;-65
2022/01/01 07:34:44;;;;;;;9.83;6.08;;;;;;;7.16;100.00;149458.84;1665867;84;21010;-65
2022/01/01 07:37:11;;;;;;;12.78;5.33;;;;;;;7.19;100.00;149464.06;1669120;84;21290;-64
2022/01/01 07:39:37;;;;;;;8.95;5.35;;;;;;;7.19;100.00;149464.06;1669627;84;21144;-65
2022/01/01 07:42:05;;;;;;;7.83;5.20;;;;;;;7.16;100.00;149457.58;1673644;84;21746;-65
2022/01/01 07:44:32;;;;;;;7.22;5.17;;;;;;;7.15;100.00;149456.25;1659180;85;21598;-64
2022/01/01 07:47:00;;;;;;;8.98;5.60;;;;;;;7.15;100.00;149456.25;1659369;85;21159;-64
2022/01/01 07:49:28;;;;;;;8.65;5.25;;;;;;;7.16;100.00;149458.84;1660980;86;21333;-59
2022/01/01 07:51:55;;;;;;;9.10;5.28;;;;;;;7.19;100.00;149464.06;1661321;85;21129;-59
2022/01/01 07:54:21;;;;;;;9.63;5.60;;;;;;;7.19;100.00;149464.06;1660384;84;21048;-58
2022/01/01 07:56:48;;;;;;;11.97;5.62;;;;;;;7.17;100.00;149461.44;1662581;86;21037;-59
2022/01/01 07:59:15;;;;;;;9.15;5.58;;;;;;;7.18;100.00;149462.75;1660986;85;21034;-59
2022/01/01 08:01:43;;;;;;;13.40;7.33;;;;;;;7.16;100.00;149458.84;1663397;84;21106;-59
2022/01/01 08:04:10;;;;;;;10.93;6.25;;;;;;;7.14;100.00;149452.41;1641800;87;21571;-58
2022/01/01 08:06:37;;;;;;;11.12;6.55;;;;;;;7.13;100.00;149451.09;1663241;84;21022;-58
2022/01/01 08:09:04;;;;;;;12.50;6.15;;;;;;;7.08;100.00;149438.16;1659528;84;21531;-58
2022/01/01 08:11:31;;;;;;;12.15;6.47;;;;;;;7.03;100.00;149425.22;1670338;84;21008;-58
2022/01/01 08:13:58;;;;;;;11.12;6.67;;;;;;;7.00;100.00;149417.47;1660745;84;21066;-58
2022/01/01 08:16:25;;;;;;;10.68;5.85;;;;;;;6.97;100.00;149409.70;1670432;85;21698;-59
2022/01/01 08:18:51;;;;;;;11.10;6.15;;;;;;;6.91;100.00;149394.14;1670949;84;20971;-58
2022/01/01 08:21:18;;;;;;;9.83;6.15;;;;;;;6.85;100.00;149381.22;1667838;84;21478;-59
2022/01/01 08:23:46;;;;;;;11.18;6.47;;;;;;;6.82;100.00;149372.14;1670588;85;21153;-58
2022/01/01 08:26:15;;;;;;;9.18;5.83;;;;;;;6.83;100.00;149376.03;1668430;85;21143;-58
2022/01/01 08:28:41;;;;;;;10.90;6.30;;;;;;;6.87;100.00;149385.13;1664496;85;23182;-58
2022/01/01 08:31:10;;;;;;;10.18;6.12;;;;;;;6.87;100.00;149386.37;1632620;86;21084;-58
2022/01/01 08:33:37;;;;;;;10.32;6.95;;;;;;;6.91;100.00;149395.47;1644730;86;21442;-58
2022/01/01 08:36:05;;;;;;;12.75;6.72;;;;;;;6.97;100.00;149409.70;1640239;85;21090;-58
2022/01/01 08:38:32;;;;;;;10.65;6.05;;;;;;;7.02;100.00;149422.64;1644905;87;21178;-60
2022/01/01 08:40:59;;;;;;;10.30;5.97;;;;;;;7.08;100.00;149438.16;1643931;87;21138;-60
2022/01/01 08:43:26;;;;;;;9.75;6.10;;;;;;;7.10;100.00;149443.33;1640678;87;21100;-60
2022/01/01 08:45:53;;;;;;;9.75;5.78;;;;;;;7.12;100.00;149448.50;1644090;87;21127;-58
2022/01/01 08:48:20;;;;;;;10.40;6.28;;;;;;;7.17;100.00;149461.44;1673252;84;21541;-59
2022/01/01 08:50:47;;;;;;;11.33;6.53;;;;;;;7.21;100.00;149470.52;1664879;84;21474;-59
2022/01/01 08:53:14;;;;;;;10.53;6.17;;;;;;;7.27;100.00;149484.77;1665677;85;21155;-58
2022/01/01 08:55:40;;;;;;;11.85;6.70;;;;;;;7.31;100.00;149495.11;1666434;85;20987;-58
2022/01/01 08:58:08;;;;;;;10.68;7.08;;;;;;;7.34;100.00;149502.88;1669770;85;22176;-59
2022/01/01 09:00:35;;;;;;;11.00;6.37;;;;;;;7.40;100.00;149518.39;1664745;85;21085;-58
2022/01/01 09:03:02;;;;;;;10.08;6.00;;;;;;;7.48;100.00;149536.55;1668257;84;21075;-58
2022/01/01 09:05:29;;;;;;;9.53;5.90;;;;;;;7.56;100.00;149557.25;1669670;84;21157;-59
2022/01/01 09:07:58;;;;;;;11.12;6.53;;;;;;;7.64;100.00;149576.67;1665343;85;21918;-58
2022/01/01 09:10:25;;;;;;;12.18;6.37;;;;;;;7.69;100.00;149590.94;1662467;85;21127;-59
2022/01/01 09:12:52;;;;;;;12.50;6.78;;;;;;;7.74;100.00;149603.86;1663832;84;20950;-58
2022/01/01 09:15:20;;;;;;;12.25;7.00;;;;;;;7.80;100.00;149618.12;1668368;84;22214;-58
2022/01/01 09:17:48;;;;;;;12.37;5.85;;;;;;;7.84;100.00;149627.16;1670880;85;21025;-59
2022/01/01 09:20:15;;;;;;;10.00;5.50;;;;;;;7.88;100.00;149637.56;1667091;84;21871;-65
2022/01/01 09:22:43;;;;;;;11.60;5.72;;;;;;;7.91;100.00;149645.31;1666954;85;21240;-63
2022/01/01 09:25:12;;;;;;;9.88;5.40;;;;;;;7.94;100.00;149651.77;1671848;84;21618;-64
2022/01/01 09:27:39;;;;;;;9.35;5.67;;;;;;;7.98;100.00;149663.44;1640545;87;20971;-64
2022/01/01 09:30:08;;;;;;;10.55;5.50;;;;;;;8.05;100.00;149678.97;1666787;85;21698;-64
2022/01/01 09:32:36;;;;;;;8.75;5.47;;;;;;;8.12;100.00;149697.13;1671523;85;20894;-59
2022/01/01 09:35:04;;;;;;;10.90;5.85;;;;;;;8.20;100.00;149717.84;1673525;84;21044;-65
2022/01/01 09:37:34;;;;;;;9.83;5.45;;;;;;;8.30;100.00;149742.45;1672804;85;21092;-65
2022/01/01 09:40:02;;;;;;;9.18;5.60;;;;;;;8.37;100.00;149759.31;1670833;85;21056;-64
2022/01/01 09:42:30;;;;;;;10.15;6.00;;;;;;;8.43;100.00;149774.84;1667539;85;22354;-58
2022/01/01 09:44:58;;;;;;;10.98;5.92;;;;;;;8.48;100.00;149786.52;1671243;85;21511;-58
2022/01/01 09:47:26;;;;;;;10.40;6.17;;;;;;;8.51;100.00;149794.33;1671944;84;21123;-64
2022/01/01 09:49:53;;;;;;;11.88;5.92;;;;;;;8.53;100.00;149800.83;1641533;85;21009;-58
2022/01/01 09:52:20;;;;;;;12.00;6.03;;;;;;;8.55;100.00;149806.00;1671149;84;21084;-64
2022/01/01 09:54:46;;;;;;;16.42;7.22;;;;;;;8.57;100.00;149811.19;1668914;85;21493;-64
2022/01/01 09:57:13;;;;;;;13.70;6.17;;;;;;;8.57;100.00;149811.19;1675235;85;22295;-64
2022/01/01 09:59:40;;;;;;;8.98;5.15;;;;;;;8.57;100.00;149811.19;1644816;85;21042;-65
2022/01/01 10:02:07;;;;;;;7.42;5.00;;;;;;;8.54;100.00;149803.42;1670864;84;21073;-64
2022/01/01 10:04:45;;;;;;;9.13;5.42;;;;;;;8.54;100.00;149803.42;1669407;85;21430;-65
2022/01/01 10:07:12;;;;;;;9.90;6.00;;;;;;;8.55;100.00;149806.00;1670302;85;21190;-65
2022/01/01 10:09:39;;;;;;;10.10;5.67;;;;;;;8.57;100.00;149811.19;1671696;85;21403;-65
2022/01/01 10:12:09;;;;;;;9.80;6.20;;;;;;;8.58;100.00;149813.78;1676257;84;21799;-64
2022/01/01 10:14:40;;;;;;;10.30;5.67;;;;;;;8.62;100.00;149822.86;1675428;84;21105;-65
2022/01/01 10:17:19;;;;;;;11.25;5.78;;;;;;;8.67;100.00;149835.81;1656894;83;21204;-65
2022/01/01 10:19:51;;;;;;;9.68;5.22;;;;;;;8.73;100.00;149850.03;1649500;86;21148;-65
2022/01/01 10:22:22;;;;;;;8.45;5.53;;;;;;;8.80;100.00;149868.20;1649273;86;21502;-59
2022/01/01 10:27:43;;;;;;;11.33;6.17;;;;;;;8.87;100.00;149885.06;1627387;86;21026;-59
2022/01/01 10:30:19;;;;;;;8.60;5.30;;;;;;;8.89;100.00;149891.50;1643274;86;21117;-65
2022/01/01 10:33:06;;;;;;;10.10;5.92;;;;;;;8.92;100.00;149898.00;1649309;84;21054;-64
2022/01/01 10:35:50;;;;;;;9.73;6.25;;;;;;;8.92;100.00;149898.00;1657671;85;21488;-58
2022/01/01 10:38:22;;;;;;;10.18;5.83;;;;;;;8.93;100.00;149899.28;1654983;86;21077;-63
2022/01/01 10:40:57;;;;;;;8.73;5.85;;;;;;;8.94;100.00;149901.87;1621375;86;21096;-66
2022/01/01 10:43:37;;;;;;;9.75;6.03;;;;;;;8.93;100.00;149900.59;1643576;86;21157;-63
2022/01/01 10:46:06;;;;;;;11.45;6.55;;;;;;;8.89;100.00;149891.50;1649937;85;21115;-58
2022/01/01 10:51:12;;;;;;;12.93;7.50;;;;;;;8.74;100.00;149852.66;1643202;86;21065;-66
2022/01/01 10:53:39;;;;;;;11.43;6.45;;;;;;;8.60;100.00;149818.95;1651486;85;21032;-64
2022/01/01 10:56:18;;;;;;;10.15;6.28;;;;;;;8.51;100.00;149795.66;1652712;86;21108;-59
2022/01/01 10:58:45;;;;;;;10.70;5.95;;;;;;;8.43;100.00;149774.84;1649196;86;21139;-60
2022/01/01 11:01:12;;;;;;;11.03;6.87;;;;;;;8.39;100.00;149764.48;1650884;86;21707;-60
2022/01/01 11:03:42;;;;;;;9.53;6.25;;;;;;;8.34;100.00;149752.81;1649536;86;21404;-64
2022/01/01 11:06:12;;;;;;;11.22;6.55;;;;;;;8.28;100.00;149738.55;1649872;85;21107;-58
2022/01/01 11:08:41;;;;;;;12.20;6.40;;;;;;;8.26;100.00;149733.38;1657643;86;20988;-58
2022/01/01 11:11:10;;;;;;;10.15;5.47;;;;;;;8.23;100.00;149725.61;1639687;86;21547;-64
2022/01/01 11:13:37;;;;;;;10.60;5.95;;;;;;;8.24;100.00;149728.19;1646714;86;21018;-65
2022/01/01 11:16:06;;;;;;;10.93;6.05;;;;;;;8.25;100.00;149730.78;1648627;84;21100;-58
2022/01/01 11:18:36;;;;;;;8.65;5.55;;;;;;;8.29;100.00;149741.19;1649364;86;20973;-63
2022/01/01 11:21:04;;;;;;;8.43;5.20;;;;;;;8.32;100.00;149747.62;1648122;86;21587;-65
2022/01/01 11:23:32;;;;;;;10.43;5.65;;;;;;;8.35;100.00;149754.12;1650927;86;21126;-58
2022/01/01 11:25:59;;;;;;;8.58;5.67;;;;;;;8.36;100.00;149756.72;1650209;86;21097;-59
2022/01/01 11:28:26;;;;;;;10.70;6.03;;;;;;;8.41;100.00;149769.66;1648789;86;21116;-59
2022/01/01 11:31:07;;;;;;;9.25;5.40;;;;;;;8.45;100.00;149780.02;1652406;84;21007;-59